createdAt,value
2018-07-14T00:00:23.983Z,90.80
2018-07-14T00:02:51.805Z,91.10
2018-07-14T00:05:19.693Z,91.50
2018-07-14T00:07:47.673Z,91.40
2018-07-14T00:10:16.284Z,91.40
2018-07-14T00:12:44.224Z,91.50
2018-07-14T00:15:12.101Z,91.50
2018-07-14T00:17:40.061Z,91.60
2018-07-14T00:20:07.913Z,91.80
2018-07-14T00:22:35.829Z,91.80
2018-07-14T00:25:03.742Z,91.90
2018-07-14T00:27:31.650Z,92.00
2018-07-14T00:29:59.477Z,92.30
2018-07-14T00:32:27.358Z,92.60
2018-07-14T00:34:55.246Z,92.80
2018-07-14T00:37:23.103Z,93.00
2018-07-14T00:39:51.065Z,93.20
2018-07-14T00:42:18.897Z,93.30
2018-07-14T00:44:46.783Z,93.30
2018-07-14T00:47:14.635Z,93.40
2018-07-14T00:49:42.534Z,93.40
2018-07-14T00:52:10.377Z,93.50
2018-07-14T00:54:38.209Z,93.70
2018-07-14T00:57:06.030Z,93.90
2018-07-14T00:59:33.860Z,94.10
2018-07-14T01:02:01.921Z,94.10
2018-07-14T01:04:29.691Z,94.00
2018-07-14T01:06:57.491Z,94.10
2018-07-14T01:09:25.406Z,94.30
2018-07-14T01:14:21.213Z,94.70
2018-07-14T01:16:49.003Z,94.80
2018-07-14T01:19:16.874Z,94.80
2018-07-14T01:21:44.741Z,94.80
2018-07-14T01:24:12.569Z,94.90
2018-07-14T01:26:43.217Z,95.00
2018-07-14T01:29:11.243Z,95.10
2018-07-14T01:31:39.118Z,95.20
2018-07-14T01:34:07.038Z,95.30
2018-07-14T01:36:34.963Z,95.80
2018-07-14T01:39:03.265Z,96.00
2018-07-14T01:41:31.113Z,96.00
2018-07-14T01:43:58.989Z,96.10
2018-07-14T01:46:26.850Z,96.10
2018-07-14T01:48:54.725Z,96.20
2018-07-14T01:51:22.566Z,96.30
2018-07-14T01:53:50.421Z,96.50
2018-07-14T01:56:18.274Z,96.60
2018-07-14T01:58:46.181Z,96.70
2018-07-14T02:01:13.982Z,96.90
2018-07-14T02:03:41.835Z,97.00
2018-07-14T02:06:09.740Z,97.30
2018-07-14T02:08:37.642Z,97.20
2018-07-14T02:11:05.477Z,97.30
2018-07-14T02:13:33.235Z,97.30
2018-07-14T02:16:01.047Z,97.30
2018-07-14T02:18:28.922Z,97.40
2018-07-14T02:20:56.801Z,97.60
2018-07-14T02:23:25.181Z,97.70
2018-07-14T02:25:53.077Z,97.90
2018-07-14T02:28:20.990Z,97.90
2018-07-14T02:30:48.923Z,98.10
2018-07-14T02:33:16.844Z,98.20
2018-07-14T02:35:44.741Z,98.50
2018-07-14T02:38:12.641Z,98.40
2018-07-14T02:40:40.468Z,98.90
2018-07-14T02:43:08.326Z,98.60
2018-07-14T02:45:36.183Z,98.70
2018-07-14T02:48:04.202Z,98.80
2018-07-14T02:50:32.073Z,98.90
2018-07-14T02:52:59.885Z,99.00
2018-07-14T02:55:27.760Z,99.10
2018-07-14T02:57:55.602Z,99.30
2018-07-14T03:00:23.433Z,99.50
2018-07-14T03:02:51.298Z,99.60
2018-07-14T03:05:19.119Z,99.60
2018-07-14T03:07:46.944Z,99.60
2018-07-14T03:10:14.782Z,99.70
2018-07-14T03:12:42.618Z,99.80
2018-07-14T03:15:10.444Z,99.90
2018-07-14T03:17:38.332Z,99.90
2018-07-14T03:20:06.217Z,99.90
2018-07-14T03:22:34.079Z,99.90
2018-07-14T03:25:01.906Z,99.90
2018-07-14T03:27:29.847Z,99.90
2018-07-14T03:29:57.750Z,99.90
2018-07-14T03:32:25.529Z,99.90
2018-07-14T03:34:53.418Z,99.90
2018-07-14T03:37:21.234Z,99.90
2018-07-14T03:39:49.201Z,99.90
2018-07-14T03:44:45.176Z,99.90
2018-07-14T03:47:13.029Z,99.90
2018-07-14T03:49:40.865Z,99.90
2018-07-14T03:52:08.810Z,99.90
2018-07-14T03:54:36.681Z,99.90
2018-07-14T03:57:04.636Z,99.90
2018-07-14T03:59:32.520Z,99.90
2018-07-14T04:02:00.402Z,99.90
2018-07-14T04:04:28.205Z,99.90
2018-07-14T04:06:56.073Z,99.90
2018-07-14T04:09:23.965Z,99.90
2018-07-14T04:11:51.885Z,99.90
2018-07-14T04:14:19.698Z,99.90
2018-07-14T04:16:47.601Z,99.90
2018-07-14T04:19:15.527Z,99.90
2018-07-14T04:21:43.447Z,99.90
2018-07-14T04:24:11.289Z,99.90
2018-07-14T04:26:39.150Z,99.90
2018-07-14T04:29:07.071Z,99.90
2018-07-14T04:31:34.903Z,99.90
2018-07-14T04:34:02.797Z,99.70
2018-07-14T04:36:30.742Z,99.80
2018-07-14T04:38:58.654Z,99.50
2018-07-14T04:41:26.549Z,99.30
2018-07-14T04:43:54.439Z,99.10
2018-07-14T04:46:22.372Z,99.00
2018-07-14T04:48:50.162Z,98.70
2018-07-14T04:51:18.087Z,98.50
2018-07-14T04:53:46.019Z,98.30
2018-07-14T04:56:13.919Z,97.60
2018-07-14T04:58:41.837Z,94.80
2018-07-14T05:01:09.610Z,92.20
2018-07-14T05:03:37.401Z,88.80
2018-07-14T05:06:05.252Z,84.10
2018-07-14T05:08:33.102Z,78.60
2018-07-14T05:11:00.839Z,74.10
2018-07-14T05:13:28.630Z,70.70
2018-07-14T05:15:56.385Z,68.60
2018-07-14T05:18:24.252Z,64.00
2018-07-14T05:20:52.099Z,61.20
2018-07-14T05:23:19.929Z,59.40
2018-07-14T05:25:47.837Z,57.30
2018-07-14T05:28:15.778Z,55.40
2018-07-14T05:30:43.581Z,53.80
2018-07-14T05:33:11.558Z,53.10
2018-07-14T05:35:39.320Z,52.70
2018-07-14T05:38:07.187Z,51.40
2018-07-14T05:40:35.081Z,50.00
2018-07-14T05:43:03.058Z,49.00
2018-07-14T05:45:30.950Z,49.20
2018-07-14T05:47:58.815Z,49.20
2018-07-14T05:50:26.662Z,47.60
2018-07-14T05:52:54.485Z,46.70
2018-07-14T05:55:22.738Z,45.80
2018-07-14T05:57:50.595Z,45.10
2018-07-14T06:00:18.434Z,44.40
2018-07-14T06:02:46.373Z,43.70
2018-07-14T06:05:14.455Z,43.20
2018-07-14T06:07:42.347Z,42.40
2018-07-14T06:10:10.257Z,42.20
2018-07-14T06:12:38.028Z,41.30
2018-07-14T06:15:05.894Z,41.50
2018-07-14T06:17:33.798Z,41.50
2018-07-14T06:20:01.647Z,40.90
2018-07-14T06:22:29.478Z,40.60
2018-07-14T06:24:57.271Z,40.30
2018-07-14T06:27:25.091Z,40.10
2018-07-14T06:29:52.951Z,40.10
2018-07-14T06:32:20.772Z,39.70
2018-07-14T06:34:48.567Z,39.40
2018-07-14T06:37:16.517Z,39.30
2018-07-14T06:39:44.280Z,39.30
2018-07-14T06:42:12.115Z,39.00
2018-07-14T06:44:39.929Z,38.80
2018-07-14T06:47:07.825Z,38.20
2018-07-14T06:49:35.658Z,38.60
2018-07-14T06:52:03.438Z,38.00
2018-07-14T06:54:31.215Z,37.90
2018-07-14T06:59:26.877Z,39.30
2018-07-14T07:01:54.778Z,41.80
2018-07-14T07:04:22.628Z,41.80
2018-07-14T07:06:50.580Z,40.90
2018-07-14T07:09:18.463Z,39.80
2018-07-14T07:11:46.379Z,39.20
2018-07-14T07:14:14.219Z,38.80
2018-07-14T07:16:42.084Z,38.90
2018-07-14T07:19:09.887Z,38.70
2018-07-14T07:21:37.662Z,38.70
2018-07-14T07:24:05.765Z,38.30
2018-07-14T07:26:33.501Z,39.20
2018-07-14T07:29:01.346Z,39.20
2018-07-14T07:31:29.195Z,38.60
2018-07-14T07:33:57.182Z,38.80
2018-07-14T07:36:25.023Z,38.50
2018-07-14T07:38:52.902Z,38.30
2018-07-14T07:41:20.721Z,38.20
2018-07-14T07:43:48.475Z,38.40
2018-07-14T07:46:16.302Z,38.80
2018-07-14T07:48:44.109Z,38.90
2018-07-14T07:51:11.987Z,39.00
2018-07-14T07:53:39.870Z,39.20
2018-07-14T07:56:07.730Z,39.30
2018-07-14T07:58:35.621Z,39.40
2018-07-14T08:01:03.417Z,39.40
2018-07-14T08:03:30.961Z,39.90
2018-07-14T08:05:58.521Z,39.90
2018-07-14T08:08:26.084Z,40.50
2018-07-14T08:10:53.645Z,40.70
2018-07-14T08:13:21.307Z,40.40
2018-07-14T08:15:49.070Z,40.40
2018-07-14T08:18:16.821Z,40.40
2018-07-14T08:20:44.549Z,39.60
2018-07-14T08:23:12.375Z,39.60
2018-07-14T08:25:40.090Z,39.60
2018-07-14T08:28:07.889Z,40.50
2018-07-14T08:30:35.665Z,40.80
2018-07-14T08:33:03.502Z,40.90
2018-07-14T08:35:31.241Z,41.10
2018-07-14T08:37:59.041Z,41.00
2018-07-14T08:40:26.798Z,41.20
2018-07-14T08:42:54.610Z,41.60
2018-07-14T08:45:22.353Z,41.80
2018-07-14T08:47:50.153Z,41.60
2018-07-14T08:50:17.872Z,41.50
2018-07-14T08:52:45.785Z,42.00
2018-07-14T08:55:13.529Z,42.30
2018-07-14T08:57:41.418Z,42.70
2018-07-14T09:00:09.198Z,42.60
2018-07-14T09:02:37.343Z,42.20
2018-07-14T09:05:05.609Z,41.90
2018-07-14T09:07:33.441Z,41.40
2018-07-14T09:10:01.281Z,40.60
2018-07-14T09:12:34.816Z,40.30
2018-07-14T09:15:02.581Z,41.00
2018-07-14T09:17:30.285Z,40.80
2018-07-14T09:19:58.038Z,42.80
2018-07-14T09:22:25.810Z,43.50
2018-07-14T09:24:53.606Z,43.30
2018-07-14T09:27:21.399Z,42.60
2018-07-14T09:29:49.134Z,41.60
2018-07-14T09:32:16.916Z,42.60
2018-07-14T09:34:44.742Z,43.30
2018-07-14T09:37:12.542Z,44.60
2018-07-14T09:39:40.399Z,45.20
2018-07-14T09:42:08.267Z,44.90
2018-07-14T09:44:36.119Z,44.40
2018-07-14T09:47:03.989Z,44.90
2018-07-14T09:49:31.771Z,45.60
2018-07-14T09:51:59.680Z,45.30
2018-07-14T09:54:27.261Z,45.20
2018-07-14T09:56:54.842Z,43.30
2018-07-14T09:59:22.447Z,41.30
2018-07-14T10:01:50.006Z,42.10
2018-07-14T10:04:17.562Z,43.00
2018-07-14T10:06:45.131Z,43.20
2018-07-14T10:09:12.680Z,42.60
2018-07-14T10:11:40.220Z,41.00
2018-07-14T10:14:07.790Z,40.70
2018-07-14T10:16:35.335Z,40.30
2018-07-14T10:19:02.879Z,40.00
2018-07-14T10:21:30.436Z,39.40
2018-07-14T10:23:57.991Z,38.30
2018-07-14T10:26:25.541Z,38.00
2018-07-14T10:28:53.074Z,37.30
2018-07-14T10:31:20.634Z,36.60
2018-07-14T10:33:48.294Z,35.60
2018-07-14T10:36:15.754Z,36.00
2018-07-14T10:38:43.309Z,37.60
2018-07-14T10:41:10.870Z,37.90
2018-07-14T10:43:38.433Z,38.20
2018-07-14T10:46:06.221Z,36.40
2018-07-14T10:48:33.796Z,36.80
2018-07-14T10:51:01.386Z,36.40
2018-07-14T10:53:28.957Z,35.90
2018-07-14T10:55:56.533Z,36.30
2018-07-14T10:58:24.273Z,38.00
2018-07-14T11:00:52.090Z,39.70
2018-07-14T11:03:19.889Z,40.00
2018-07-14T11:05:47.595Z,39.00
2018-07-14T11:08:15.311Z,38.50
2018-07-14T11:10:43.102Z,38.90
2018-07-14T11:13:10.991Z,38.30
2018-07-14T11:15:38.865Z,37.90
2018-07-14T11:18:06.799Z,38.00
2018-07-14T11:20:34.639Z,36.70
2018-07-14T11:23:02.433Z,36.80
2018-07-14T11:25:30.279Z,37.40
2018-07-14T11:27:58.070Z,36.80
2018-07-14T11:30:25.834Z,36.60
2018-07-14T11:32:53.646Z,36.60
2018-07-14T11:37:53.069Z,35.20
2018-07-14T11:40:20.899Z,36.00
2018-07-14T11:42:48.783Z,36.50
2018-07-14T11:45:16.526Z,36.10
2018-07-14T11:47:44.428Z,35.40
2018-07-14T11:50:12.135Z,35.70
2018-07-14T11:52:39.925Z,36.20
2018-07-14T11:55:07.722Z,36.30
2018-07-14T11:57:35.623Z,36.20
2018-07-14T12:00:03.431Z,36.20
2018-07-14T12:02:31.226Z,36.20
2018-07-14T12:07:26.731Z,34.20
2018-07-14T12:09:54.567Z,34.40
2018-07-14T12:12:22.366Z,34.90
2018-07-14T12:14:50.116Z,35.10
2018-07-14T12:17:17.870Z,34.60
2018-07-14T12:19:45.680Z,34.30
2018-07-14T12:22:13.524Z,34.90
2018-07-14T12:24:41.319Z,35.00
2018-07-14T12:27:09.144Z,34.30
2018-07-14T12:29:36.914Z,34.70
2018-07-14T12:32:04.810Z,34.20
2018-07-14T12:34:32.662Z,33.90
2018-07-14T12:37:00.471Z,33.80
2018-07-14T12:39:28.314Z,34.50
2018-07-14T12:41:56.159Z,33.10
2018-07-14T12:44:24.057Z,31.80
2018-07-14T12:46:51.822Z,31.50
2018-07-14T12:49:19.529Z,31.60
2018-07-14T12:51:47.322Z,31.50
2018-07-14T12:54:15.161Z,31.50
2018-07-14T12:56:42.942Z,32.30
2018-07-14T12:59:10.747Z,32.10
2018-07-14T13:01:38.869Z,31.90
2018-07-14T13:04:06.707Z,32.40
2018-07-14T13:06:34.616Z,32.30
2018-07-14T13:09:02.661Z,31.70
2018-07-14T13:11:30.221Z,30.80
2018-07-14T13:13:57.841Z,31.50
2018-07-14T13:16:25.458Z,31.50
2018-07-14T13:19:18.328Z,31.40
2018-07-14T13:21:52.970Z,32.20
2018-07-14T13:24:20.771Z,32.30
2018-07-14T13:26:48.606Z,32.00
2018-07-14T13:32:23.961Z,31.30
2018-07-14T13:34:57.585Z,32.00
2018-07-14T13:37:38.849Z,30.90
2018-07-14T13:40:27.556Z,30.90
2018-07-14T13:42:55.325Z,30.50
2018-07-14T13:45:23.228Z,30.50
2018-07-14T13:47:51.073Z,30.00
2018-07-14T13:50:18.947Z,30.00
2018-07-14T13:52:46.721Z,30.00
2018-07-14T13:55:14.618Z,30.10
2018-07-14T13:57:42.462Z,29.90
2018-07-14T14:00:10.278Z,29.50
2018-07-14T14:02:37.910Z,29.60
2018-07-14T14:05:05.764Z,30.00
2018-07-14T14:07:33.349Z,29.70
2018-07-14T14:10:00.929Z,29.70
2018-07-14T14:12:28.554Z,29.70
2018-07-14T14:14:56.125Z,29.40
2018-07-14T14:17:23.738Z,29.40
2018-07-14T14:19:51.296Z,29.30
2018-07-14T14:22:18.857Z,29.00
2018-07-14T14:24:46.397Z,29.10
2018-07-14T14:27:13.951Z,28.80
2018-07-14T14:29:41.494Z,29.00
2018-07-14T14:32:09.058Z,29.00
2018-07-14T14:34:36.597Z,29.50
2018-07-14T14:37:04.142Z,29.20
2018-07-14T14:39:31.673Z,28.90
2018-07-14T14:41:59.552Z,29.00
2018-07-14T14:44:27.097Z,29.70
2018-07-14T14:46:54.694Z,29.80
2018-07-14T14:49:22.248Z,29.50
2018-07-14T14:54:52.749Z,28.60
2018-07-14T14:57:20.459Z,29.20
2018-07-14T14:59:48.011Z,28.70
2018-07-14T15:02:15.562Z,28.40
2018-07-14T15:04:43.107Z,28.90
2018-07-14T15:07:10.662Z,28.70
2018-07-14T15:09:38.360Z,29.30
2018-07-14T15:12:06.159Z,28.00
2018-07-14T15:14:33.726Z,28.40
2018-07-14T15:17:01.267Z,28.50
2018-07-14T15:19:28.865Z,28.90
2018-07-14T15:21:56.457Z,28.80
2018-07-14T15:24:24.013Z,28.80
2018-07-14T15:26:51.544Z,28.80
2018-07-14T15:29:19.092Z,29.70
2018-07-14T15:31:46.630Z,29.10
2018-07-14T15:34:14.187Z,27.90
2018-07-14T15:36:41.741Z,27.90
2018-07-14T15:39:09.699Z,28.00
2018-07-14T15:41:37.654Z,28.30
2018-07-14T15:44:05.206Z,28.60
2018-07-14T15:46:32.745Z,28.40
2018-07-14T15:49:00.286Z,28.40
2018-07-14T15:51:27.814Z,28.80
2018-07-14T15:53:55.355Z,29.10
2018-07-14T15:56:22.967Z,29.00
2018-07-14T15:58:50.501Z,29.50
2018-07-14T16:01:18.066Z,29.90
2018-07-14T16:03:45.621Z,30.00
2018-07-14T16:06:13.199Z,30.10
2018-07-14T16:08:40.732Z,30.30
2018-07-14T16:11:08.385Z,30.30
2018-07-14T16:13:36.245Z,30.40
2018-07-14T16:16:03.843Z,30.00
2018-07-14T16:18:31.430Z,29.90
2018-07-14T16:20:58.977Z,30.10
2018-07-14T16:23:26.500Z,30.40
2018-07-14T16:25:54.067Z,31.00
2018-07-14T16:28:21.647Z,31.20
2018-07-14T16:30:49.180Z,31.00
2018-07-14T16:33:16.729Z,31.30
2018-07-14T16:35:44.427Z,31.20
2018-07-14T16:38:11.849Z,31.50
2018-07-14T16:40:39.427Z,32.00
2018-07-14T16:43:06.992Z,32.70
2018-07-14T16:45:34.556Z,32.90
2018-07-14T16:48:02.109Z,33.20
2018-07-14T16:50:29.661Z,32.90
2018-07-14T16:52:57.218Z,33.20
2018-07-14T16:55:24.757Z,33.50
2018-07-14T16:57:52.313Z,33.50
2018-07-14T17:00:19.886Z,33.70
2018-07-14T17:02:47.455Z,34.20
2018-07-14T17:05:14.997Z,34.50
2018-07-14T17:07:42.566Z,34.50
2018-07-14T17:10:10.108Z,34.60
2018-07-14T17:12:37.663Z,34.90
2018-07-14T17:15:05.273Z,35.10
2018-07-14T17:17:32.833Z,35.20
2018-07-14T17:20:00.382Z,35.50
2018-07-14T17:22:27.926Z,35.70
2018-07-14T17:24:55.482Z,35.90
2018-07-14T17:27:23.151Z,36.10
2018-07-14T17:29:50.681Z,36.20
2018-07-14T17:32:18.481Z,36.30
2018-07-14T17:34:46.051Z,36.40
2018-07-14T17:37:13.610Z,36.20
2018-07-14T17:39:41.153Z,36.50
2018-07-14T17:42:08.713Z,36.40
2018-07-14T17:44:36.275Z,36.00
2018-07-14T17:49:31.612Z,36.20
2018-07-14T17:51:59.183Z,36.10
2018-07-14T17:56:54.330Z,35.90
2018-07-14T17:59:21.894Z,36.00
2018-07-14T18:01:49.454Z,36.30
2018-07-14T18:04:17.008Z,36.30
2018-07-14T18:06:44.554Z,36.40
2018-07-14T18:09:12.118Z,36.70
2018-07-14T18:11:39.845Z,37.00
2018-07-14T18:16:35.091Z,37.90
2018-07-14T18:19:02.601Z,38.30
2018-07-14T18:21:30.151Z,38.70
2018-07-14T18:23:57.729Z,39.10
2018-07-14T18:26:25.271Z,39.50
2018-07-14T18:28:52.877Z,39.80
2018-07-14T18:31:20.429Z,40.20
2018-07-14T18:33:47.986Z,40.60
2018-07-14T18:36:15.663Z,40.90
2018-07-14T18:38:43.095Z,41.10
2018-07-14T18:41:10.657Z,41.60
2018-07-14T18:43:38.203Z,41.80
2018-07-14T18:46:05.767Z,41.80
2018-07-14T18:48:33.326Z,43.10
2018-07-14T18:51:00.875Z,43.50
2018-07-14T18:53:28.425Z,44.20
2018-07-14T18:55:55.985Z,44.80
2018-07-14T18:58:23.525Z,45.30
2018-07-14T19:00:51.080Z,45.80
2018-07-14T19:03:18.635Z,46.70
2018-07-14T19:05:46.213Z,47.40
2018-07-14T19:08:13.778Z,48.10
2018-07-14T19:10:41.333Z,48.50
2018-07-14T19:13:08.886Z,49.10
2018-07-14T19:15:36.445Z,49.70
2018-07-14T19:18:04.028Z,50.10
2018-07-14T19:20:31.596Z,50.60
2018-07-14T19:22:59.146Z,51.10
2018-07-14T19:25:26.706Z,51.50
2018-07-14T19:27:54.278Z,51.70
2018-07-14T19:30:21.900Z,52.00
2018-07-14T19:32:49.406Z,52.20
2018-07-14T19:35:16.952Z,52.50
2018-07-14T19:37:44.478Z,52.90
2018-07-14T19:40:12.022Z,53.20
2018-07-14T19:42:39.556Z,53.50
2018-07-14T19:45:07.176Z,53.90
2018-07-14T19:47:40.018Z,55.10
2018-07-14T19:52:35.285Z,55.10
2018-07-14T19:55:02.845Z,55.50
2018-07-14T19:57:30.422Z,56.00
2018-07-14T19:59:57.965Z,56.40
2018-07-14T20:02:25.538Z,56.90
2018-07-14T20:04:53.080Z,57.20
2018-07-14T20:07:20.658Z,57.70
2018-07-14T20:09:48.230Z,58.00
2018-07-14T20:12:15.806Z,58.40
2018-07-14T20:14:43.374Z,58.80
2018-07-14T20:17:10.933Z,58.90
2018-07-14T20:19:38.485Z,59.80
2018-07-14T20:22:06.057Z,59.50
2018-07-14T20:27:01.374Z,60.10
2018-07-14T20:29:28.909Z,60.70
2018-07-14T20:31:56.470Z,62.30
2018-07-14T20:34:24.027Z,62.00
2018-07-14T20:36:51.570Z,62.90
2018-07-14T20:39:19.116Z,63.40
2018-07-14T20:41:46.710Z,63.70
2018-07-14T20:44:14.241Z,64.50
2018-07-14T20:46:41.809Z,65.10
2018-07-14T20:49:09.386Z,65.60
2018-07-14T20:51:37.006Z,66.90
2018-07-14T20:54:05.081Z,67.60
2018-07-14T20:56:32.638Z,67.80
2018-07-14T20:59:00.186Z,68.00
2018-07-14T21:01:41.444Z,68.20
2018-07-14T21:04:16.822Z,68.30
2018-07-14T21:06:44.364Z,68.50
2018-07-14T21:09:11.912Z,68.70
2018-07-14T21:11:39.470Z,68.90
2018-07-14T21:14:20.304Z,69.40
2018-07-14T21:16:47.833Z,69.90
2018-07-14T21:19:15.388Z,70.40
2018-07-14T21:21:42.954Z,70.60
2018-07-14T21:24:19.013Z,70.80
2018-07-14T21:26:46.577Z,71.30
2018-07-14T21:29:14.146Z,71.50
2018-07-14T21:31:41.767Z,71.90
2018-07-14T21:34:09.287Z,72.30
2018-07-14T21:36:36.851Z,72.70
2018-07-14T21:39:05.794Z,73.30
2018-07-14T21:41:33.334Z,73.70
2018-07-14T21:44:00.876Z,74.10
2018-07-14T21:46:28.428Z,74.30
2018-07-14T21:48:55.981Z,74.80
2018-07-14T21:51:23.545Z,75.50
2018-07-14T21:53:54.312Z,75.80
2018-07-14T21:56:21.895Z,76.20
2018-07-14T21:58:49.513Z,76.80
2018-07-14T22:01:22.802Z,77.30
2018-07-14T22:03:50.366Z,77.70
2018-07-14T22:06:34.870Z,78.10
2018-07-14T22:09:02.661Z,78.40
2018-07-14T22:11:30.197Z,78.90
2018-07-14T22:13:57.757Z,79.10
2018-07-14T22:16:25.442Z,79.40
2018-07-14T22:18:53.009Z,79.80
2018-07-14T22:21:20.582Z,80.30
2018-07-14T22:23:48.165Z,80.40
2018-07-14T22:26:15.736Z,80.80
2018-07-14T22:28:43.298Z,80.80
2018-07-14T22:31:10.840Z,81.10
2018-07-14T22:33:38.389Z,81.70
2018-07-14T22:36:05.958Z,82.30
2018-07-14T22:38:33.518Z,82.80
2018-07-14T22:41:06.314Z,83.40
2018-07-14T22:43:33.868Z,83.80
2018-07-14T22:46:01.432Z,83.90
2018-07-14T22:48:28.986Z,84.10
2018-07-14T22:50:56.534Z,84.60
2018-07-14T22:53:24.086Z,85.00
2018-07-14T22:55:51.637Z,86.00
2018-07-14T22:58:19.272Z,86.20
2018-07-14T23:00:46.835Z,86.40
2018-07-14T23:03:14.396Z,86.90
2018-07-14T23:05:41.970Z,87.70
2018-07-14T23:08:09.520Z,87.90
2018-07-14T23:10:37.098Z,88.00
2018-07-14T23:13:04.651Z,88.10
2018-07-14T23:15:45.126Z,88.30
2018-07-14T23:18:12.661Z,88.80
2018-07-14T23:20:41.042Z,89.20
2018-07-14T23:23:08.629Z,88.90
2018-07-14T23:25:36.178Z,89.60
2018-07-14T23:28:04.216Z,89.60
2018-07-14T23:30:31.757Z,89.80
2018-07-14T23:32:59.289Z,89.70
2018-07-14T23:35:26.869Z,90.00
2018-07-14T23:38:18.060Z,90.40
2018-07-14T23:40:45.613Z,90.30
2018-07-14T23:43:13.150Z,90.50
2018-07-14T23:45:40.688Z,90.80
2018-07-14T23:48:08.224Z,90.90
2018-07-14T23:50:35.794Z,91.00
2018-07-14T23:53:03.365Z,91.20
2018-07-14T23:55:30.945Z,91.40
2018-07-14T23:58:04.679Z,91.50
